sensor_id;sensor_type;location;lat;lon;timestamp;P1;durP1;ratioP1;P2;durP2;ratioP2
58242;SDS011;50118;53.232;8.252;2024-02-16T00:00:10;9.25;;;5.55;;
58242;SDS011;50118;53.232;8.252;2024-02-16T00:02:36;8.30;;;5.88;;
58242;SDS011;50118;53.232;8.252;2024-02-16T00:05:02;8.68;;;5.45;;
58242;SDS011;50118;53.232;8.252;2024-02-16T00:07:30;8.00;;;5.32;;
58242;SDS011;50118;53.232;8.252;2024-02-16T00:09:55;7.13;;;5.25;;
58242;SDS011;50118;53.232;8.252;2024-02-16T00:12:21;9.73;;;5.45;;
58242;SDS011;50118;53.232;8.252;2024-02-16T00:14:47;8.57;;;5.13;;
58242;SDS011;50118;53.232;8.252;2024-02-16T00:17:12;10.63;;;5.72;;
58242;SDS011;50118;53.232;8.252;2024-02-16T00:19:38;9.90;;;5.50;;
58242;SDS011;50118;53.232;8.252;2024-02-16T00:22:04;8.45;;;5.18;;
58242;SDS011;50118;53.232;8.252;2024-02-16T00:24:32;7.30;;;5.20;;
58242;SDS011;50118;53.232;8.252;2024-02-16T00:26:58;9.35;;;5.07;;
58242;SDS011;50118;53.232;8.252;2024-02-16T00:29:25;8.40;;;5.25;;
58242;SDS011;50118;53.232;8.252;2024-02-16T00:31:51;9.07;;;5.35;;
58242;SDS011;50118;53.232;8.252;2024-02-16T00:34:16;8.38;;;4.63;;
58242;SDS011;50118;53.232;8.252;2024-02-16T00:36:42;7.15;;;5.10;;
58242;SDS011;50118;53.232;8.252;2024-02-16T00:39:07;10.90;;;4.75;;
58242;SDS011;50118;53.232;8.252;2024-02-16T00:41:33;8.07;;;4.90;;
58242;SDS011;50118;53.232;8.252;2024-02-16T00:43:58;7.95;;;4.60;;
58242;SDS011;50118;53.232;8.252;2024-02-16T00:46:24;8.77;;;4.82;;
58242;SDS011;50118;53.232;8.252;2024-02-16T00:48:50;8.60;;;4.80;;
58242;SDS011;50118;53.232;8.252;2024-02-16T00:51:16;7.05;;;4.80;;
58242;SDS011;50118;53.232;8.252;2024-02-16T00:53:42;9.13;;;4.80;;
58242;SDS011;50118;53.232;8.252;2024-02-16T00:56:07;7.57;;;4.80;;
58242;SDS011;50118;53.232;8.252;2024-02-16T00:58:33;9.07;;;4.53;;
58242;SDS011;50118;53.232;8.252;2024-02-16T01:00:59;8.32;;;4.22;;
58242;SDS011;50118;53.232;8.252;2024-02-16T01:03:24;11.63;;;4.50;;
58242;SDS011;50118;53.232;8.252;2024-02-16T01:05:51;7.75;;;4.13;;
58242;SDS011;50118;53.232;8.252;2024-02-16T01:08:18;9.15;;;4.05;;
58242;SDS011;50118;53.232;8.252;2024-02-16T01:10:43;8.02;;;4.15;;
58242;SDS011;50118;53.232;8.252;2024-02-16T01:13:09;8.50;;;4.45;;
58242;SDS011;50118;53.232;8.252;2024-02-16T01:15:35;8.38;;;4.30;;
58242;SDS011;50118;53.232;8.252;2024-02-16T01:18:02;8.82;;;3.90;;
58242;SDS011;50118;53.232;8.252;2024-02-16T01:20:28;7.75;;;3.78;;
58242;SDS011;50118;53.232;8.252;2024-02-16T01:22:56;8.07;;;3.83;;
58242;SDS011;50118;53.232;8.252;2024-02-16T01:25:21;7.78;;;3.92;;
58242;SDS011;50118;53.232;8.252;2024-02-16T01:27:47;6.90;;;3.97;;
58242;SDS011;50118;53.232;8.252;2024-02-16T01:30:12;7.20;;;3.80;;
58242;SDS011;50118;53.232;8.252;2024-02-16T01:32:39;8.75;;;4.05;;
58242;SDS011;50118;53.232;8.252;2024-02-16T01:35:05;7.15;;;3.55;;
58242;SDS011;50118;53.232;8.252;2024-02-16T01:37:31;6.45;;;3.60;;
58242;SDS011;50118;53.232;8.252;2024-02-16T01:39:57;8.10;;;4.00;;
58242;SDS011;50118;53.232;8.252;2024-02-16T01:42:22;6.65;;;3.75;;
58242;SDS011;50118;53.232;8.252;2024-02-16T01:44:48;7.60;;;3.80;;
58242;SDS011;50118;53.232;8.252;2024-02-16T01:47:13;7.13;;;3.80;;
58242;SDS011;50118;53.232;8.252;2024-02-16T01:49:40;6.57;;;3.50;;
58242;SDS011;50118;53.232;8.252;2024-02-16T01:52:05;8.35;;;3.80;;
58242;SDS011;50118;53.232;8.252;2024-02-16T01:54:31;7.05;;;3.58;;
58242;SDS011;50118;53.232;8.252;2024-02-16T01:56:56;8.00;;;3.40;;
58242;SDS011;50118;53.232;8.252;2024-02-16T01:59:22;7.18;;;3.80;;
58242;SDS011;50118;53.232;8.252;2024-02-16T02:01:48;6.78;;;3.70;;
58242;SDS011;50118;53.232;8.252;2024-02-16T02:04:14;6.65;;;3.75;;
58242;SDS011;50118;53.232;8.252;2024-02-16T02:06:40;7.22;;;3.58;;
58242;SDS011;50118;53.232;8.252;2024-02-16T02:09:06;6.65;;;3.30;;
58242;SDS011;50118;53.232;8.252;2024-02-16T02:11:32;5.72;;;3.30;;
58242;SDS011;50118;53.232;8.252;2024-02-16T02:13:57;8.65;;;3.60;;
58242;SDS011;50118;53.232;8.252;2024-02-16T02:16:23;6.82;;;3.55;;
58242;SDS011;50118;53.232;8.252;2024-02-16T02:18:51;7.93;;;3.50;;
58242;SDS011;50118;53.232;8.252;2024-02-16T02:21:17;6.57;;;3.50;;
58242;SDS011;50118;53.232;8.252;2024-02-16T02:23:42;7.78;;;3.67;;
58242;SDS011;50118;53.232;8.252;2024-02-16T02:26:08;8.02;;;3.30;;
58242;SDS011;50118;53.232;8.252;2024-02-16T02:28:34;7.93;;;3.70;;
58242;SDS011;50118;53.232;8.252;2024-02-16T02:30:59;6.20;;;3.33;;
58242;SDS011;50118;53.232;8.252;2024-02-16T02:33:25;7.80;;;3.50;;
58242;SDS011;50118;53.232;8.252;2024-02-16T02:35:51;6.75;;;3.50;;
58242;SDS011;50118;53.232;8.252;2024-02-16T02:38:16;5.53;;;3.35;;
58242;SDS011;50118;53.232;8.252;2024-02-16T02:40:42;7.40;;;3.47;;
58242;SDS011;50118;53.232;8.252;2024-02-16T02:43:07;6.45;;;3.45;;
58242;SDS011;50118;53.232;8.252;2024-02-16T02:45:33;6.72;;;3.30;;
58242;SDS011;50118;53.232;8.252;2024-02-16T02:47:59;6.70;;;3.20;;
58242;SDS011;50118;53.232;8.252;2024-02-16T02:50:25;5.70;;;3.38;;
58242;SDS011;50118;53.232;8.252;2024-02-16T02:52:50;7.30;;;3.60;;
58242;SDS011;50118;53.232;8.252;2024-02-16T02:55:16;7.22;;;3.60;;
58242;SDS011;50118;53.232;8.252;2024-02-16T02:57:41;5.70;;;3.13;;
58242;SDS011;50118;53.232;8.252;2024-02-16T03:00:07;7.75;;;3.30;;
58242;SDS011;50118;53.232;8.252;2024-02-16T03:02:45;5.65;;;3.28;;
58242;SDS011;50118;53.232;8.252;2024-02-16T03:05:12;5.15;;;3.13;;
58242;SDS011;50118;53.232;8.252;2024-02-16T03:07:37;4.82;;;2.83;;
58242;SDS011;50118;53.232;8.252;2024-02-16T03:10:04;6.65;;;3.28;;
58242;SDS011;50118;53.232;8.252;2024-02-16T03:12:31;6.93;;;3.70;;
58242;SDS011;50118;53.232;8.252;2024-02-16T03:14:57;7.35;;;3.20;;
58242;SDS011;50118;53.232;8.252;2024-02-16T03:17:22;6.10;;;3.00;;
58242;SDS011;50118;53.232;8.252;2024-02-16T03:19:48;5.88;;;3.30;;
58242;SDS011;50118;53.232;8.252;2024-02-16T03:22:13;5.95;;;3.30;;
58242;SDS011;50118;53.232;8.252;2024-02-16T03:24:39;5.55;;;3.10;;
58242;SDS011;50118;53.232;8.252;2024-02-16T03:27:04;7.20;;;3.50;;
58242;SDS011;50118;53.232;8.252;2024-02-16T03:29:30;6.13;;;3.00;;
58242;SDS011;50118;53.232;8.252;2024-02-16T03:31:55;7.22;;;3.00;;
58242;SDS011;50118;53.232;8.252;2024-02-16T03:34:21;7.20;;;3.13;;
58242;SDS011;50118;53.232;8.252;2024-02-16T03:36:47;5.43;;;3.05;;
58242;SDS011;50118;53.232;8.252;2024-02-16T03:39:12;8.75;;;3.38;;
58242;SDS011;50118;53.232;8.252;2024-02-16T03:41:38;8.82;;;3.38;;
58242;SDS011;50118;53.232;8.252;2024-02-16T03:44:03;6.90;;;3.13;;
58242;SDS011;50118;53.232;8.252;2024-02-16T03:46:29;6.93;;;3.17;;
58242;SDS011;50118;53.232;8.252;2024-02-16T03:48:55;7.35;;;3.15;;
58242;SDS011;50118;53.232;8.252;2024-02-16T03:51:21;6.15;;;3.67;;
58242;SDS011;50118;53.232;8.252;2024-02-16T03:53:46;6.07;;;3.30;;
58242;SDS011;50118;53.232;8.252;2024-02-16T03:56:12;6.03;;;3.22;;
58242;SDS011;50118;53.232;8.252;2024-02-16T03:58:43;6.32;;;3.53;;
58242;SDS011;50118;53.232;8.252;2024-02-16T04:01:09;6.38;;;3.28;;
58242;SDS011;50118;53.232;8.252;2024-02-16T04:03:34;6.25;;;3.15;;
58242;SDS011;50118;53.232;8.252;2024-02-16T04:06:00;8.85;;;3.30;;
58242;SDS011;50118;53.232;8.252;2024-02-16T04:08:26;6.47;;;3.50;;
58242;SDS011;50118;53.232;8.252;2024-02-16T04:10:52;6.32;;;3.05;;
58242;SDS011;50118;53.232;8.252;2024-02-16T04:13:17;6.03;;;3.20;;
58242;SDS011;50118;53.232;8.252;2024-02-16T04:15:42;5.25;;;3.17;;
58242;SDS011;50118;53.232;8.252;2024-02-16T04:18:08;7.57;;;3.30;;
58242;SDS011;50118;53.232;8.252;2024-02-16T04:20:34;5.88;;;3.20;;
58242;SDS011;50118;53.232;8.252;2024-02-16T04:23:00;5.72;;;3.30;;
58242;SDS011;50118;53.232;8.252;2024-02-16T04:25:26;6.45;;;3.42;;
58242;SDS011;50118;53.232;8.252;2024-02-16T04:27:51;6.43;;;3.55;;
58242;SDS011;50118;53.232;8.252;2024-02-16T04:30:17;8.00;;;3.67;;
58242;SDS011;50118;53.232;8.252;2024-02-16T04:32:42;6.45;;;3.30;;
58242;SDS011;50118;53.232;8.252;2024-02-16T04:35:08;6.03;;;3.40;;
58242;SDS011;50118;53.232;8.252;2024-02-16T04:37:37;6.40;;;3.50;;
58242;SDS011;50118;53.232;8.252;2024-02-16T04:40:04;5.35;;;3.33;;
58242;SDS011;50118;53.232;8.252;2024-02-16T04:42:30;8.68;;;3.80;;
58242;SDS011;50118;53.232;8.252;2024-02-16T04:44:56;7.03;;;3.78;;
58242;SDS011;50118;53.232;8.252;2024-02-16T04:47:21;7.28;;;3.70;;
58242;SDS011;50118;53.232;8.252;2024-02-16T04:49:47;6.30;;;3.80;;
58242;SDS011;50118;53.232;8.252;2024-02-16T04:52:12;5.68;;;3.85;;
58242;SDS011;50118;53.232;8.252;2024-02-16T04:54:38;4.63;;;3.40;;
58242;SDS011;50118;53.232;8.252;2024-02-16T04:57:05;8.52;;;4.28;;
58242;SDS011;50118;53.232;8.252;2024-02-16T04:59:31;6.65;;;3.50;;
58242;SDS011;50118;53.232;8.252;2024-02-16T05:01:56;9.00;;;4.15;;
58242;SDS011;50118;53.232;8.252;2024-02-16T05:04:22;8.45;;;4.00;;
58242;SDS011;50118;53.232;8.252;2024-02-16T05:06:47;6.13;;;3.63;;
58242;SDS011;50118;53.232;8.252;2024-02-16T05:09:13;8.45;;;4.00;;
58242;SDS011;50118;53.232;8.252;2024-02-16T05:11:42;6.45;;;3.83;;
58242;SDS011;50118;53.232;8.252;2024-02-16T05:14:10;8.35;;;3.63;;
58242;SDS011;50118;53.232;8.252;2024-02-16T05:16:45;7.93;;;4.07;;
58242;SDS011;50118;53.232;8.252;2024-02-16T05:19:11;6.28;;;3.92;;
58242;SDS011;50118;53.232;8.252;2024-02-16T05:21:36;7.20;;;4.05;;
58242;SDS011;50118;53.232;8.252;2024-02-16T05:24:02;8.65;;;4.40;;
58242;SDS011;50118;53.232;8.252;2024-02-16T05:26:28;8.10;;;3.90;;
58242;SDS011;50118;53.232;8.252;2024-02-16T05:28:53;7.57;;;3.75;;
58242;SDS011;50118;53.232;8.252;2024-02-16T05:31:19;7.47;;;3.95;;
58242;SDS011;50118;53.232;8.252;2024-02-16T05:33:45;6.28;;;4.30;;
58242;SDS011;50118;53.232;8.252;2024-02-16T05:36:17;7.30;;;4.10;;
58242;SDS011;50118;53.232;8.252;2024-02-16T05:38:46;7.43;;;4.13;;
58242;SDS011;50118;53.232;8.252;2024-02-16T05:41:12;9.40;;;4.68;;
58242;SDS011;50118;53.232;8.252;2024-02-16T05:43:38;7.63;;;4.40;;
58242;SDS011;50118;53.232;8.252;2024-02-16T05:46:03;8.52;;;4.30;;
58242;SDS011;50118;53.232;8.252;2024-02-16T05:48:32;8.07;;;4.28;;
58242;SDS011;50118;53.232;8.252;2024-02-16T05:51:05;7.65;;;4.07;;
58242;SDS011;50118;53.232;8.252;2024-02-16T05:53:30;6.82;;;3.90;;
58242;SDS011;50118;53.232;8.252;2024-02-16T05:55:56;7.00;;;4.18;;
58242;SDS011;50118;53.232;8.252;2024-02-16T05:58:22;8.07;;;4.20;;
58242;SDS011;50118;53.232;8.252;2024-02-16T06:00:48;7.07;;;4.03;;
58242;SDS011;50118;53.232;8.252;2024-02-16T06:03:14;6.63;;;4.15;;
58242;SDS011;50118;53.232;8.252;2024-02-16T06:05:39;7.25;;;4.15;;
58242;SDS011;50118;53.232;8.252;2024-02-16T06:08:11;6.55;;;3.95;;
58242;SDS011;50118;53.232;8.252;2024-02-16T06:10:38;6.05;;;4.30;;
58242;SDS011;50118;53.232;8.252;2024-02-16T06:13:03;7.07;;;4.20;;
58242;SDS011;50118;53.232;8.252;2024-02-16T06:15:29;7.07;;;4.28;;
58242;SDS011;50118;53.232;8.252;2024-02-16T06:17:55;6.32;;;4.15;;
58242;SDS011;50118;53.232;8.252;2024-02-16T06:20:21;5.72;;;3.50;;
58242;SDS011;50118;53.232;8.252;2024-02-16T06:22:47;7.88;;;4.47;;
58242;SDS011;50118;53.232;8.252;2024-02-16T06:25:12;6.57;;;3.83;;
58242;SDS011;50118;53.232;8.252;2024-02-16T06:27:38;7.72;;;4.43;;
58242;SDS011;50118;53.232;8.252;2024-02-16T06:30:03;8.23;;;4.38;;
58242;SDS011;50118;53.232;8.252;2024-02-16T06:32:29;7.47;;;4.65;;
58242;SDS011;50118;53.232;8.252;2024-02-16T06:34:56;8.95;;;4.22;;
58242;SDS011;50118;53.232;8.252;2024-02-16T06:37:22;7.07;;;4.40;;
58242;SDS011;50118;53.232;8.252;2024-02-16T06:39:47;7.20;;;4.50;;
58242;SDS011;50118;53.232;8.252;2024-02-16T06:42:13;7.65;;;4.38;;
58242;SDS011;50118;53.232;8.252;2024-02-16T06:44:39;6.50;;;4.55;;
58242;SDS011;50118;53.232;8.252;2024-02-16T06:47:05;9.40;;;4.68;;
58242;SDS011;50118;53.232;8.252;2024-02-16T06:49:30;7.93;;;4.43;;
58242;SDS011;50118;53.232;8.252;2024-02-16T06:51:56;8.32;;;4.55;;
58242;SDS011;50118;53.232;8.252;2024-02-16T06:54:21;7.20;;;4.32;;
58242;SDS011;50118;53.232;8.252;2024-02-16T06:56:47;8.95;;;4.93;;
58242;SDS011;50118;53.232;8.252;2024-02-16T06:59:12;7.75;;;4.80;;
58242;SDS011;50118;53.232;8.252;2024-02-16T07:01:38;8.20;;;4.68;;
58242;SDS011;50118;53.232;8.252;2024-02-16T07:04:03;7.38;;;4.97;;
58242;SDS011;50118;53.232;8.252;2024-02-16T07:06:29;9.50;;;5.28;;
58242;SDS011;50118;53.232;8.252;2024-02-16T07:08:55;7.47;;;4.70;;
58242;SDS011;50118;53.232;8.252;2024-02-16T07:11:20;7.70;;;4.55;;
58242;SDS011;50118;53.232;8.252;2024-02-16T07:13:46;7.53;;;4.75;;
58242;SDS011;50118;53.232;8.252;2024-02-16T07:16:11;7.30;;;4.53;;
58242;SDS011;50118;53.232;8.252;2024-02-16T07:18:37;7.72;;;4.40;;
58242;SDS011;50118;53.232;8.252;2024-02-16T07:21:02;7.55;;;4.57;;
58242;SDS011;50118;53.232;8.252;2024-02-16T07:23:28;6.60;;;4.18;;
58242;SDS011;50118;53.232;8.252;2024-02-16T07:25:55;6.43;;;3.60;;
58242;SDS011;50118;53.232;8.252;2024-02-16T07:28:24;7.47;;;4.38;;
58242;SDS011;50118;53.232;8.252;2024-02-16T07:30:51;6.93;;;4.18;;
58242;SDS011;50118;53.232;8.252;2024-02-16T07:33:16;6.63;;;3.75;;
58242;SDS011;50118;53.232;8.252;2024-02-16T07:35:42;7.20;;;3.88;;
58242;SDS011;50118;53.232;8.252;2024-02-16T07:38:09;7.07;;;3.70;;
58242;SDS011;50118;53.232;8.252;2024-02-16T07:40:34;7.55;;;3.47;;
58242;SDS011;50118;53.232;8.252;2024-02-16T07:43:00;7.20;;;3.92;;
58242;SDS011;50118;53.232;8.252;2024-02-16T07:45:26;5.72;;;3.50;;
58242;SDS011;50118;53.232;8.252;2024-02-16T07:47:52;6.32;;;3.50;;
58242;SDS011;50118;53.232;8.252;2024-02-16T07:50:18;7.07;;;3.60;;
58242;SDS011;50118;53.232;8.252;2024-02-16T07:52:45;8.73;;;5.07;;
58242;SDS011;50118;53.232;8.252;2024-02-16T07:55:10;10.10;;;5.32;;
58242;SDS011;50118;53.232;8.252;2024-02-16T07:57:36;9.45;;;6.32;;
58242;SDS011;50118;53.232;8.252;2024-02-16T08:00:02;8.73;;;4.93;;
58242;SDS011;50118;53.232;8.252;2024-02-16T08:02:28;14.23;;;9.73;;
58242;SDS011;50118;53.232;8.252;2024-02-16T08:04:54;12.23;;;8.43;;
58242;SDS011;50118;53.232;8.252;2024-02-16T08:07:19;6.47;;;3.88;;
58242;SDS011;50118;53.232;8.252;2024-02-16T08:09:45;6.00;;;4.45;;
58242;SDS011;50118;53.232;8.252;2024-02-16T08:12:12;7.68;;;5.10;;
58242;SDS011;50118;53.232;8.252;2024-02-16T08:14:38;6.90;;;3.40;;
58242;SDS011;50118;53.232;8.252;2024-02-16T08:17:04;5.78;;;3.55;;
58242;SDS011;50118;53.232;8.252;2024-02-16T08:19:35;6.28;;;3.60;;
58242;SDS011;50118;53.232;8.252;2024-02-16T08:22:02;6.38;;;3.38;;
58242;SDS011;50118;53.232;8.252;2024-02-16T08:24:32;6.65;;;3.47;;
58242;SDS011;50118;53.232;8.252;2024-02-16T08:26:58;5.97;;;3.20;;
58242;SDS011;50118;53.232;8.252;2024-02-16T08:29:23;6.82;;;3.50;;
58242;SDS011;50118;53.232;8.252;2024-02-16T08:31:50;6.78;;;3.53;;
58242;SDS011;50118;53.232;8.252;2024-02-16T08:34:16;5.10;;;3.40;;
58242;SDS011;50118;53.232;8.252;2024-02-16T08:36:45;8.10;;;3.95;;
58242;SDS011;50118;53.232;8.252;2024-02-16T08:39:12;7.40;;;3.22;;
58242;SDS011;50118;53.232;8.252;2024-02-16T08:41:38;7.05;;;3.42;;
58242;SDS011;50118;53.232;8.252;2024-02-16T08:44:04;4.57;;;3.15;;
58242;SDS011;50118;53.232;8.252;2024-02-16T08:46:29;9.80;;;4.82;;
58242;SDS011;50118;53.232;8.252;2024-02-16T08:48:55;5.47;;;3.45;;
58242;SDS011;50118;53.232;8.252;2024-02-16T08:51:21;6.13;;;4.00;;
58242;SDS011;50118;53.232;8.252;2024-02-16T08:53:47;10.55;;;6.47;;
58242;SDS011;50118;53.232;8.252;2024-02-16T08:56:12;8.15;;;4.80;;
58242;SDS011;50118;53.232;8.252;2024-02-16T08:58:41;7.65;;;3.88;;
58242;SDS011;50118;53.232;8.252;2024-02-16T09:01:06;7.75;;;4.22;;
58242;SDS011;50118;53.232;8.252;2024-02-16T09:03:31;7.22;;;4.07;;
58242;SDS011;50118;53.232;8.252;2024-02-16T09:06:02;6.22;;;3.45;;
58242;SDS011;50118;53.232;8.252;2024-02-16T09:08:28;6.30;;;3.80;;
58242;SDS011;50118;53.232;8.252;2024-02-16T09:11:01;5.40;;;2.97;;
58242;SDS011;50118;53.232;8.252;2024-02-16T09:13:32;6.10;;;3.25;;
58242;SDS011;50118;53.232;8.252;2024-02-16T09:15:59;5.55;;;3.42;;
58242;SDS011;50118;53.232;8.252;2024-02-16T09:18:25;6.43;;;3.05;;
58242;SDS011;50118;53.232;8.252;2024-02-16T09:20:51;4.95;;;3.00;;
58242;SDS011;50118;53.232;8.252;2024-02-16T09:23:16;6.40;;;3.30;;
58242;SDS011;50118;53.232;8.252;2024-02-16T09:25:42;4.80;;;3.30;;
58242;SDS011;50118;53.232;8.252;2024-02-16T09:28:08;4.75;;;2.92;;
58242;SDS011;50118;53.232;8.252;2024-02-16T09:30:34;6.25;;;3.38;;
58242;SDS011;50118;53.232;8.252;2024-02-16T09:33:02;4.85;;;2.75;;
58242;SDS011;50118;53.232;8.252;2024-02-16T09:35:27;5.15;;;3.05;;
58242;SDS011;50118;53.232;8.252;2024-02-16T09:37:53;6.50;;;3.03;;
58242;SDS011;50118;53.232;8.252;2024-02-16T09:40:18;5.45;;;2.97;;
58242;SDS011;50118;53.232;8.252;2024-02-16T09:42:47;5.85;;;2.78;;
58242;SDS011;50118;53.232;8.252;2024-02-16T09:45:16;6.47;;;3.10;;
58242;SDS011;50118;53.232;8.252;2024-02-16T09:47:42;6.55;;;3.00;;
58242;SDS011;50118;53.232;8.252;2024-02-16T09:50:09;6.57;;;3.10;;
58242;SDS011;50118;53.232;8.252;2024-02-16T09:52:35;6.88;;;3.20;;
58242;SDS011;50118;53.232;8.252;2024-02-16T09:55:02;5.88;;;2.90;;
58242;SDS011;50118;53.232;8.252;2024-02-16T09:57:30;5.53;;;3.00;;
58242;SDS011;50118;53.232;8.252;2024-02-16T09:59:56;6.15;;;3.03;;
58242;SDS011;50118;53.232;8.252;2024-02-16T10:02:22;7.35;;;3.33;;
58242;SDS011;50118;53.232;8.252;2024-02-16T10:04:47;7.25;;;3.45;;
58242;SDS011;50118;53.232;8.252;2024-02-16T10:07:30;6.20;;;3.20;;
58242;SDS011;50118;53.232;8.252;2024-02-16T10:09:56;5.15;;;3.00;;
58242;SDS011;50118;53.232;8.252;2024-02-16T10:12:22;6.18;;;3.22;;
58242;SDS011;50118;53.232;8.252;2024-02-16T10:14:54;6.45;;;3.10;;
58242;SDS011;50118;53.232;8.252;2024-02-16T10:17:24;5.40;;;3.20;;
58242;SDS011;50118;53.232;8.252;2024-02-16T10:19:56;5.38;;;3.40;;
58242;SDS011;50118;53.232;8.252;2024-02-16T10:24:48;5.55;;;3.50;;
58242;SDS011;50118;53.232;8.252;2024-02-16T10:27:15;5.47;;;3.17;;
58242;SDS011;50118;53.232;8.252;2024-02-16T10:29:44;7.45;;;3.53;;
58242;SDS011;50118;53.232;8.252;2024-02-16T10:32:11;6.95;;;3.50;;
58242;SDS011;50118;53.232;8.252;2024-02-16T10:34:37;6.80;;;3.20;;
58242;SDS011;50118;53.232;8.252;2024-02-16T10:37:05;5.28;;;3.28;;
58242;SDS011;50118;53.232;8.252;2024-02-16T10:39:32;40.13;;;20.27;;
58242;SDS011;50118;53.232;8.252;2024-02-16T10:41:58;8.98;;;3.95;;
58242;SDS011;50118;53.232;8.252;2024-02-16T10:44:27;6.22;;;3.30;;
58242;SDS011;50118;53.232;8.252;2024-02-16T10:46:53;6.95;;;4.00;;
58242;SDS011;50118;53.232;8.252;2024-02-16T10:49:21;6.55;;;3.63;;
58242;SDS011;50118;53.232;8.252;2024-02-16T10:51:49;6.60;;;3.50;;
58242;SDS011;50118;53.232;8.252;2024-02-16T10:54:22;6.50;;;3.72;;
58242;SDS011;50118;53.232;8.252;2024-02-16T10:56:53;6.25;;;3.40;;
58242;SDS011;50118;53.232;8.252;2024-02-16T10:59:18;6.20;;;3.80;;
58242;SDS011;50118;53.232;8.252;2024-02-16T11:01:44;6.43;;;3.70;;
58242;SDS011;50118;53.232;8.252;2024-02-16T11:04:16;7.50;;;3.97;;
58242;SDS011;50118;53.232;8.252;2024-02-16T11:09:23;6.10;;;3.83;;
58242;SDS011;50118;53.232;8.252;2024-02-16T11:11:54;7.43;;;4.40;;
58242;SDS011;50118;53.232;8.252;2024-02-16T11:14:35;8.57;;;4.25;;
58242;SDS011;50118;53.232;8.252;2024-02-16T11:17:06;8.02;;;4.20;;
58242;SDS011;50118;53.232;8.252;2024-02-16T11:19:35;6.32;;;3.90;;
58242;SDS011;50118;53.232;8.252;2024-02-16T11:22:04;7.32;;;3.63;;
58242;SDS011;50118;53.232;8.252;2024-02-16T11:24:36;6.88;;;3.78;;
58242;SDS011;50118;53.232;8.252;2024-02-16T11:27:03;7.03;;;3.60;;
58242;SDS011;50118;53.232;8.252;2024-02-16T11:29:30;7.57;;;3.75;;
58242;SDS011;50118;53.232;8.252;2024-02-16T11:31:57;10.88;;;6.40;;
58242;SDS011;50118;53.232;8.252;2024-02-16T11:34:23;9.77;;;5.47;;
58242;SDS011;50118;53.232;8.252;2024-02-16T11:36:54;6.90;;;4.10;;
58242;SDS011;50118;53.232;8.252;2024-02-16T11:39:21;8.20;;;4.10;;
58242;SDS011;50118;53.232;8.252;2024-02-16T11:41:47;7.32;;;4.38;;
58242;SDS011;50118;53.232;8.252;2024-02-16T11:44:13;6.82;;;4.45;;
58242;SDS011;50118;53.232;8.252;2024-02-16T11:46:41;6.78;;;4.20;;
58242;SDS011;50118;53.232;8.252;2024-02-16T11:49:07;8.63;;;4.68;;
58242;SDS011;50118;53.232;8.252;2024-02-16T11:51:33;6.95;;;4.30;;
58242;SDS011;50118;53.232;8.252;2024-02-16T11:53:59;6.85;;;3.92;;
58242;SDS011;50118;53.232;8.252;2024-02-16T11:56:25;9.27;;;4.18;;
58242;SDS011;50118;53.232;8.252;2024-02-16T11:58:51;6.72;;;4.20;;
58242;SDS011;50118;53.232;8.252;2024-02-16T12:01:18;12.88;;;4.68;;
58242;SDS011;50118;53.232;8.252;2024-02-16T12:03:43;7.90;;;4.22;;
58242;SDS011;50118;53.232;8.252;2024-02-16T12:06:09;7.95;;;4.50;;
58242;SDS011;50118;53.232;8.252;2024-02-16T12:08:44;8.55;;;4.30;;
58242;SDS011;50118;53.232;8.252;2024-02-16T12:11:09;6.95;;;4.38;;
58242;SDS011;50118;53.232;8.252;2024-02-16T12:13:35;6.70;;;4.22;;
58242;SDS011;50118;53.232;8.252;2024-02-16T12:16:01;8.63;;;4.82;;
58242;SDS011;50118;53.232;8.252;2024-02-16T12:18:27;9.18;;;5.22;;
58242;SDS011;50118;53.232;8.252;2024-02-16T12:21:00;8.65;;;4.43;;
58242;SDS011;50118;53.232;8.252;2024-02-16T12:23:27;7.38;;;4.60;;
58242;SDS011;50118;53.232;8.252;2024-02-16T12:25:53;8.30;;;4.72;;
58242;SDS011;50118;53.232;8.252;2024-02-16T12:28:19;7.72;;;4.63;;
58242;SDS011;50118;53.232;8.252;2024-02-16T12:30:58;7.75;;;4.63;;
58242;SDS011;50118;53.232;8.252;2024-02-16T12:33:24;8.40;;;4.95;;
58242;SDS011;50118;53.232;8.252;2024-02-16T12:35:50;8.27;;;4.90;;
58242;SDS011;50118;53.232;8.252;2024-02-16T12:38:16;6.57;;;4.55;;
58242;SDS011;50118;53.232;8.252;2024-02-16T12:40:43;8.55;;;4.80;;
58242;SDS011;50118;53.232;8.252;2024-02-16T12:43:08;8.82;;;5.68;;
58242;SDS011;50118;53.232;8.252;2024-02-16T12:45:36;8.80;;;5.07;;
58242;SDS011;50118;53.232;8.252;2024-02-16T12:48:02;9.20;;;5.50;;
58242;SDS011;50118;53.232;8.252;2024-02-16T12:50:29;8.07;;;5.68;;
58242;SDS011;50118;53.232;8.252;2024-02-16T12:52:54;9.40;;;5.80;;
58242;SDS011;50118;53.232;8.252;2024-02-16T12:55:20;10.30;;;6.32;;
58242;SDS011;50118;53.232;8.252;2024-02-16T12:57:45;7.88;;;5.65;;
58242;SDS011;50118;53.232;8.252;2024-02-16T13:00:11;10.73;;;7.60;;
58242;SDS011;50118;53.232;8.252;2024-02-16T13:02:38;8.52;;;6.35;;
58242;SDS011;50118;53.232;8.252;2024-02-16T13:05:03;10.77;;;7.32;;
58242;SDS011;50118;53.232;8.252;2024-02-16T13:07:29;9.82;;;7.20;;
58242;SDS011;50118;53.232;8.252;2024-02-16T13:09:54;12.88;;;6.88;;
58242;SDS011;50118;53.232;8.252;2024-02-16T13:12:20;10.32;;;7.50;;
58242;SDS011;50118;53.232;8.252;2024-02-16T13:14:48;11.98;;;7.20;;
58242;SDS011;50118;53.232;8.252;2024-02-16T13:17:14;11.60;;;7.70;;
58242;SDS011;50118;53.232;8.252;2024-02-16T13:19:40;11.57;;;7.93;;
58242;SDS011;50118;53.232;8.252;2024-02-16T13:22:05;10.95;;;7.72;;
58242;SDS011;50118;53.232;8.252;2024-02-16T13:24:31;10.73;;;8.20;;
58242;SDS011;50118;53.232;8.252;2024-02-16T13:26:56;10.68;;;8.15;;
58242;SDS011;50118;53.232;8.252;2024-02-16T13:29:22;11.73;;;8.65;;
58242;SDS011;50118;53.232;8.252;2024-02-16T13:31:48;10.38;;;9.02;;
58242;SDS011;50118;53.232;8.252;2024-02-16T13:34:13;12.07;;;9.55;;
58242;SDS011;50118;53.232;8.252;2024-02-16T13:36:42;12.93;;;9.80;;
58242;SDS011;50118;53.232;8.252;2024-02-16T13:39:08;11.77;;;10.10;;
58242;SDS011;50118;53.232;8.252;2024-02-16T13:41:33;14.32;;;10.48;;
58242;SDS011;50118;53.232;8.252;2024-02-16T13:43:59;14.38;;;10.52;;
58242;SDS011;50118;53.232;8.252;2024-02-16T13:46:25;14.18;;;10.50;;
58242;SDS011;50118;53.232;8.252;2024-02-16T13:48:50;16.38;;;10.70;;
58242;SDS011;50118;53.232;8.252;2024-02-16T13:51:16;13.98;;;10.30;;
58242;SDS011;50118;53.232;8.252;2024-02-16T13:53:41;15.63;;;11.00;;
58242;SDS011;50118;53.232;8.252;2024-02-16T13:56:07;15.93;;;10.82;;
58242;SDS011;50118;53.232;8.252;2024-02-16T13:58:33;14.30;;;10.65;;
58242;SDS011;50118;53.232;8.252;2024-02-16T14:00:59;14.05;;;10.68;;
58242;SDS011;50118;53.232;8.252;2024-02-16T14:03:25;15.32;;;11.00;;
58242;SDS011;50118;53.232;8.252;2024-02-16T14:05:51;16.77;;;11.35;;
58242;SDS011;50118;53.232;8.252;2024-02-16T14:08:17;14.38;;;11.27;;
58242;SDS011;50118;53.232;8.252;2024-02-16T14:10:42;14.88;;;11.00;;
58242;SDS011;50118;53.232;8.252;2024-02-16T14:13:08;12.93;;;10.98;;
58242;SDS011;50118;53.232;8.252;2024-02-16T14:15:34;16.17;;;11.73;;
58242;SDS011;50118;53.232;8.252;2024-02-16T14:17:59;15.23;;;11.98;;
58242;SDS011;50118;53.232;8.252;2024-02-16T14:20:25;15.45;;;12.15;;
58242;SDS011;50118;53.232;8.252;2024-02-16T14:22:51;18.42;;;13.32;;
58242;SDS011;50118;53.232;8.252;2024-02-16T14:25:17;15.25;;;12.20;;
58242;SDS011;50118;53.232;8.252;2024-02-16T14:27:43;16.15;;;12.65;;
58242;SDS011;50118;53.232;8.252;2024-02-16T14:30:10;14.48;;;11.40;;
58242;SDS011;50118;53.232;8.252;2024-02-16T14:32:38;13.35;;;10.73;;
58242;SDS011;50118;53.232;8.252;2024-02-16T14:35:04;13.52;;;10.25;;
58242;SDS011;50118;53.232;8.252;2024-02-16T14:37:33;12.05;;;10.50;;
58242;SDS011;50118;53.232;8.252;2024-02-16T14:39:58;11.93;;;9.77;;
58242;SDS011;50118;53.232;8.252;2024-02-16T14:42:25;11.95;;;9.88;;
58242;SDS011;50118;53.232;8.252;2024-02-16T14:44:53;11.45;;;9.00;;